EGNH - Blackpool Airport
Distance from station: E 5mi, 14km
Updated: 10/23/2017 9:20am
Mostly Cloudy
Mostly Cloudy
 Wind from WSW
Wind: WSW 6 mph , 9 km/h
Temperature: 57°F , 14°C
Dew Point: 57°F , 14°C
Humidity: 100%
Barometer: 29.91 inHg , 1013 hPa
Clouds: Mostly Cloudy
Visibility: 6 miles , 10 km
Cloud details: Mostly Cloudy 200 ft
2017/10/23 16:20 EGNH 231620Z 24005KT 9999 BKN002 14/14 Q1013